sensor_id;sensor_type;location;lat;lon;timestamp;temperature;humidity
76613;DHT22;65507;48.454;-2.058;2024-03-23T00:54:23;8.90;81.70
76613;DHT22;65507;48.454;-2.058;2024-03-23T00:56:49;8.90;81.60
76613;DHT22;65507;48.454;-2.058;2024-03-23T00:59:14;8.90;81.50
76613;DHT22;65507;48.454;-2.058;2024-03-23T01:01:40;8.90;81.50
76613;DHT22;65507;48.454;-2.058;2024-03-23T01:04:06;8.80;81.70
76613;DHT22;65507;48.454;-2.058;2024-03-23T01:06:31;8.80;81.80
76613;DHT22;65507;48.454;-2.058;2024-03-23T01:08:57;8.70;82.00
76613;DHT22;65507;48.454;-2.058;2024-03-23T01:11:23;8.70;82.00
76613;DHT22;65507;48.454;-2.058;2024-03-23T01:13:48;8.60;82.00
76613;DHT22;65507;48.454;-2.058;2024-03-23T01:16:14;8.60;82.10
76613;DHT22;65507;48.454;-2.058;2024-03-23T01:18:40;8.60;82.20
76613;DHT22;65507;48.454;-2.058;2024-03-23T01:21:05;8.50;82.20
76613;DHT22;65507;48.454;-2.058;2024-03-23T01:23:31;8.50;82.20
76613;DHT22;65507;48.454;-2.058;2024-03-23T01:25:57;8.50;82.20
76613;DHT22;65507;48.454;-2.058;2024-03-23T01:28:22;8.40;82.30
76613;DHT22;65507;48.454;-2.058;2024-03-23T01:30:49;8.30;82.40
76613;DHT22;65507;48.454;-2.058;2024-03-23T01:33:15;8.30;82.40
76613;DHT22;65507;48.454;-2.058;2024-03-23T01:35:41;8.30;82.40
76613;DHT22;65507;48.454;-2.058;2024-03-23T01:38:06;8.30;82.30
76613;DHT22;65507;48.454;-2.058;2024-03-23T01:40:32;8.30;82.30
76613;DHT22;65507;48.454;-2.058;2024-03-23T01:43:02;8.30;82.30
76613;DHT22;65507;48.454;-2.058;2024-03-23T01:45:29;8.30;82.30
76613;DHT22;65507;48.454;-2.058;2024-03-23T01:47:55;8.30;82.40
76613;DHT22;65507;48.454;-2.058;2024-03-23T01:50:21;8.30;82.30
76613;DHT22;65507;48.454;-2.058;2024-03-23T01:52:48;8.30;82.30
76613;DHT22;65507;48.454;-2.058;2024-03-23T01:55:13;8.30;82.30
76613;DHT22;65507;48.454;-2.058;2024-03-23T01:57:39;8.30;82.30
76613;DHT22;65507;48.454;-2.058;2024-03-23T02:00:06;8.30;82.30
76613;DHT22;65507;48.454;-2.058;2024-03-23T02:02:32;8.20;82.40
76613;DHT22;65507;48.454;-2.058;2024-03-23T02:04:57;8.20;82.50
76613;DHT22;65507;48.454;-2.058;2024-03-23T02:07:23;8.20;82.60
76613;DHT22;65507;48.454;-2.058;2024-03-23T02:09:51;8.20;82.60
76613;DHT22;65507;48.454;-2.058;2024-03-23T02:12:17;8.20;82.60
76613;DHT22;65507;48.454;-2.058;2024-03-23T02:14:43;8.10;82.50
76613;DHT22;65507;48.454;-2.058;2024-03-23T02:17:09;8.10;82.50
76613;DHT22;65507;48.454;-2.058;2024-03-23T02:19:35;8.10;82.50
76613;DHT22;65507;48.454;-2.058;2024-03-23T02:22:00;8.10;82.50
76613;DHT22;65507;48.454;-2.058;2024-03-23T02:24:26;8.10;82.60
76613;DHT22;65507;48.454;-2.058;2024-03-23T02:26:52;8.10;82.50
76613;DHT22;65507;48.454;-2.058;2024-03-23T02:29:17;8.10;82.40
76613;DHT22;65507;48.454;-2.058;2024-03-23T02:31:45;8.10;83.30
76613;DHT22;65507;48.454;-2.058;2024-03-23T02:34:10;8.10;82.40
76613;DHT22;65507;48.454;-2.058;2024-03-23T02:36:36;8.10;82.50
76613;DHT22;65507;48.454;-2.058;2024-03-23T02:39:02;8.10;82.60
76613;DHT22;65507;48.454;-2.058;2024-03-23T02:41:27;8.10;82.50
76613;DHT22;65507;48.454;-2.058;2024-03-23T02:43:53;8.00;82.50
76613;DHT22;65507;48.454;-2.058;2024-03-23T02:46:19;8.00;82.70
76613;DHT22;65507;48.454;-2.058;2024-03-23T02:48:44;8.00;82.80
76613;DHT22;65507;48.454;-2.058;2024-03-23T02:51:10;7.90;82.90
76613;DHT22;65507;48.454;-2.058;2024-03-23T02:53:36;7.90;82.90
76613;DHT22;65507;48.454;-2.058;2024-03-23T02:56:01;7.90;82.90
76613;DHT22;65507;48.454;-2.058;2024-03-23T02:58:27;7.80;82.90
76613;DHT22;65507;48.454;-2.058;2024-03-23T03:00:53;7.80;83.00
76613;DHT22;65507;48.454;-2.058;2024-03-23T03:03:18;7.80;83.10
76613;DHT22;65507;48.454;-2.058;2024-03-23T03:05:44;7.80;83.10
76613;DHT22;65507;48.454;-2.058;2024-03-23T03:08:10;7.80;83.10
76613;DHT22;65507;48.454;-2.058;2024-03-23T03:10:35;7.80;83.10
76613;DHT22;65507;48.454;-2.058;2024-03-23T03:13:02;7.70;83.10
76613;DHT22;65507;48.454;-2.058;2024-03-23T03:15:28;7.70;83.10
76613;DHT22;65507;48.454;-2.058;2024-03-23T03:17:54;7.70;83.10
76613;DHT22;65507;48.454;-2.058;2024-03-23T03:20:20;7.70;83.20
76613;DHT22;65507;48.454;-2.058;2024-03-23T03:22:47;7.60;83.30
76613;DHT22;65507;48.454;-2.058;2024-03-23T03:25:12;7.60;83.30
76613;DHT22;65507;48.454;-2.058;2024-03-23T03:27:38;7.60;83.20
76613;DHT22;65507;48.454;-2.058;2024-03-23T03:30:04;7.60;83.30
76613;DHT22;65507;48.454;-2.058;2024-03-23T03:32:32;7.60;83.20
76613;DHT22;65507;48.454;-2.058;2024-03-23T03:34:58;7.60;83.20
76613;DHT22;65507;48.454;-2.058;2024-03-23T03:37:24;7.60;83.20
76613;DHT22;65507;48.454;-2.058;2024-03-23T03:39:50;7.60;83.20
76613;DHT22;65507;48.454;-2.058;2024-03-23T03:42:15;7.60;83.20
76613;DHT22;65507;48.454;-2.058;2024-03-23T03:44:41;7.60;83.20
76613;DHT22;65507;48.454;-2.058;2024-03-23T03:47:07;7.50;83.30
76613;DHT22;65507;48.454;-2.058;2024-03-23T03:49:33;7.50;83.30
76613;DHT22;65507;48.454;-2.058;2024-03-23T03:51:58;7.40;83.40
76613;DHT22;65507;48.454;-2.058;2024-03-23T03:54:24;7.40;83.50
76613;DHT22;65507;48.454;-2.058;2024-03-23T03:56:49;7.40;83.60
76613;DHT22;65507;48.454;-2.058;2024-03-23T03:59:16;7.40;83.70
76613;DHT22;65507;48.454;-2.058;2024-03-23T04:01:42;7.40;83.70
76613;DHT22;65507;48.454;-2.058;2024-03-23T04:04:08;7.40;83.70
76613;DHT22;65507;48.454;-2.058;2024-03-23T04:06:34;7.40;83.70
76613;DHT22;65507;48.454;-2.058;2024-03-23T04:08:59;7.50;83.70
76613;DHT22;65507;48.454;-2.058;2024-03-23T04:11:25;7.50;83.60
76613;DHT22;65507;48.454;-2.058;2024-03-23T04:13:51;7.60;84.50
76613;DHT22;65507;48.454;-2.058;2024-03-23T04:16:27;8.00;83.80
76613;DHT22;65507;48.454;-2.058;2024-03-23T04:18:53;7.60;83.40
76613;DHT22;65507;48.454;-2.058;2024-03-23T04:21:19;7.60;83.50
76613;DHT22;65507;48.454;-2.058;2024-03-23T04:23:45;7.60;83.60
76613;DHT22;65507;48.454;-2.058;2024-03-23T04:26:11;7.50;83.80
76613;DHT22;65507;48.454;-2.058;2024-03-23T04:28:37;7.50;84.00
76613;DHT22;65507;48.454;-2.058;2024-03-23T04:31:06;7.40;84.00
76613;DHT22;65507;48.454;-2.058;2024-03-23T04:33:31;7.40;84.00
76613;DHT22;65507;48.454;-2.058;2024-03-23T04:35:57;7.40;84.00
76613;DHT22;65507;48.454;-2.058;2024-03-23T04:38:22;7.40;84.00
76613;DHT22;65507;48.454;-2.058;2024-03-23T04:40:56;7.40;84.10
76613;DHT22;65507;48.454;-2.058;2024-03-23T04:43:21;7.30;84.10
76613;DHT22;65507;48.454;-2.058;2024-03-23T04:45:47;7.30;84.20
76613;DHT22;65507;48.454;-2.058;2024-03-23T04:48:13;7.30;84.20
76613;DHT22;65507;48.454;-2.058;2024-03-23T04:50:38;7.30;84.30
76613;DHT22;65507;48.454;-2.058;2024-03-23T04:53:04;7.30;84.30
76613;DHT22;65507;48.454;-2.058;2024-03-23T04:55:30;7.30;84.30
76613;DHT22;65507;48.454;-2.058;2024-03-23T04:57:56;7.30;84.20
76613;DHT22;65507;48.454;-2.058;2024-03-23T05:00:22;7.30;84.20
76613;DHT22;65507;48.454;-2.058;2024-03-23T05:02:48;7.30;84.30
76613;DHT22;65507;48.454;-2.058;2024-03-23T05:05:14;7.30;84.20
76613;DHT22;65507;48.454;-2.058;2024-03-23T05:07:40;7.40;84.20
76613;DHT22;65507;48.454;-2.058;2024-03-23T05:10:09;7.30;84.30
76613;DHT22;65507;48.454;-2.058;2024-03-23T05:12:37;7.30;84.30
76613;DHT22;65507;48.454;-2.058;2024-03-23T05:15:06;7.40;84.40
76613;DHT22;65507;48.454;-2.058;2024-03-23T05:17:33;7.40;84.40
76613;DHT22;65507;48.454;-2.058;2024-03-23T05:19:59;7.30;84.40
76613;DHT22;65507;48.454;-2.058;2024-03-23T05:22:25;7.30;84.50
76613;DHT22;65507;48.454;-2.058;2024-03-23T05:24:52;7.30;84.50
76613;DHT22;65507;48.454;-2.058;2024-03-23T05:27:18;7.30;84.50
76613;DHT22;65507;48.454;-2.058;2024-03-23T05:29:44;7.20;84.60
76613;DHT22;65507;48.454;-2.058;2024-03-23T05:32:10;7.20;84.60
76613;DHT22;65507;48.454;-2.058;2024-03-23T05:34:35;7.20;84.70
76613;DHT22;65507;48.454;-2.058;2024-03-23T05:37:01;7.20;84.70
76613;DHT22;65507;48.454;-2.058;2024-03-23T05:39:27;7.20;84.80
76613;DHT22;65507;48.454;-2.058;2024-03-23T05:41:52;7.20;84.70
76613;DHT22;65507;48.454;-2.058;2024-03-23T05:44:18;7.20;84.70
76613;DHT22;65507;48.454;-2.058;2024-03-23T05:46:44;7.20;84.70
76613;DHT22;65507;48.454;-2.058;2024-03-23T05:49:15;7.20;84.60
76613;DHT22;65507;48.454;-2.058;2024-03-23T05:51:40;7.20;84.60
76613;DHT22;65507;48.454;-2.058;2024-03-23T05:54:06;7.20;84.60
76613;DHT22;65507;48.454;-2.058;2024-03-23T05:56:32;7.20;84.60
76613;DHT22;65507;48.454;-2.058;2024-03-23T05:58:58;7.20;84.60
76613;DHT22;65507;48.454;-2.058;2024-03-23T06:01:23;7.20;84.50
76613;DHT22;65507;48.454;-2.058;2024-03-23T06:03:49;7.20;84.50
76613;DHT22;65507;48.454;-2.058;2024-03-23T06:06:15;7.20;84.40
76613;DHT22;65507;48.454;-2.058;2024-03-23T06:08:40;7.10;84.40
76613;DHT22;65507;48.454;-2.058;2024-03-23T06:11:06;7.10;84.40
76613;DHT22;65507;48.454;-2.058;2024-03-23T06:13:32;7.00;84.40
76613;DHT22;65507;48.454;-2.058;2024-03-23T06:16:02;7.00;84.60
76613;DHT22;65507;48.454;-2.058;2024-03-23T06:18:27;6.90;84.70
76613;DHT22;65507;48.454;-2.058;2024-03-23T06:20:53;6.90;84.70
76613;DHT22;65507;48.454;-2.058;2024-03-23T06:23:19;6.90;84.90
76613;DHT22;65507;48.454;-2.058;2024-03-23T06:25:46;6.90;84.70
76613;DHT22;65507;48.454;-2.058;2024-03-23T06:28:12;6.90;84.60
76613;DHT22;65507;48.454;-2.058;2024-03-23T06:30:38;6.90;84.50
76613;DHT22;65507;48.454;-2.058;2024-03-23T06:33:03;6.80;84.40
76613;DHT22;65507;48.454;-2.058;2024-03-23T06:35:31;6.90;84.50
76613;DHT22;65507;48.454;-2.058;2024-03-23T06:37:56;6.80;84.40
76613;DHT22;65507;48.454;-2.058;2024-03-23T06:40:23;6.80;84.40
76613;DHT22;65507;48.454;-2.058;2024-03-23T06:42:49;6.80;84.40
76613;DHT22;65507;48.454;-2.058;2024-03-23T06:45:16;6.90;84.40
76613;DHT22;65507;48.454;-2.058;2024-03-23T06:47:42;6.90;84.40
76613;DHT22;65507;48.454;-2.058;2024-03-23T06:50:07;6.90;84.30
76613;DHT22;65507;48.454;-2.058;2024-03-23T06:52:35;7.00;84.20
76613;DHT22;65507;48.454;-2.058;2024-03-23T06:55:01;7.00;84.10
76613;DHT22;65507;48.454;-2.058;2024-03-23T06:57:29;7.10;84.00
76613;DHT22;65507;48.454;-2.058;2024-03-23T06:59:55;7.10;83.80
76613;DHT22;65507;48.454;-2.058;2024-03-23T07:02:21;7.20;83.80
76613;DHT22;65507;48.454;-2.058;2024-03-23T07:04:46;7.30;83.70
76613;DHT22;65507;48.454;-2.058;2024-03-23T07:07:12;7.30;83.60
76613;DHT22;65507;48.454;-2.058;2024-03-23T07:09:38;7.40;83.40
76613;DHT22;65507;48.454;-2.058;2024-03-23T07:12:04;7.40;83.30
76613;DHT22;65507;48.454;-2.058;2024-03-23T07:14:30;7.50;83.30
76613;DHT22;65507;48.454;-2.058;2024-03-23T07:16:55;7.60;83.20
76613;DHT22;65507;48.454;-2.058;2024-03-23T07:19:22;7.70;83.10
76613;DHT22;65507;48.454;-2.058;2024-03-23T07:21:48;7.80;83.10
76613;DHT22;65507;48.454;-2.058;2024-03-23T07:24:13;7.90;82.90
76613;DHT22;65507;48.454;-2.058;2024-03-23T07:26:39;8.00;82.80
76613;DHT22;65507;48.454;-2.058;2024-03-23T07:29:06;8.10;82.80
76613;DHT22;65507;48.454;-2.058;2024-03-23T07:31:32;8.10;82.60
76613;DHT22;65507;48.454;-2.058;2024-03-23T07:33:57;8.20;82.50
76613;DHT22;65507;48.454;-2.058;2024-03-23T07:36:23;8.30;82.40
76613;DHT22;65507;48.454;-2.058;2024-03-23T07:38:49;8.40;82.30
76613;DHT22;65507;48.454;-2.058;2024-03-23T07:41:17;8.60;82.20
76613;DHT22;65507;48.454;-2.058;2024-03-23T07:43:43;8.70;82.00
76613;DHT22;65507;48.454;-2.058;2024-03-23T07:46:09;8.80;81.80
76613;DHT22;65507;48.454;-2.058;2024-03-23T07:48:35;8.90;81.70
76613;DHT22;65507;48.454;-2.058;2024-03-23T07:51:09;9.10;81.40
76613;DHT22;65507;48.454;-2.058;2024-03-23T07:53:36;9.10;81.20
76613;DHT22;65507;48.454;-2.058;2024-03-23T07:56:09;9.10;81.40
76613;DHT22;65507;48.454;-2.058;2024-03-23T07:58:36;9.00;81.60
76613;DHT22;65507;48.454;-2.058;2024-03-23T08:01:09;9.00;81.80
76613;DHT22;65507;48.454;-2.058;2024-03-23T08:03:36;9.00;81.80
76613;DHT22;65507;48.454;-2.058;2024-03-23T08:06:13;9.10;81.70
76613;DHT22;65507;48.454;-2.058;2024-03-23T08:08:40;9.10;82.50
76613;DHT22;65507;48.454;-2.058;2024-03-23T08:11:06;9.20;81.70
76613;DHT22;65507;48.454;-2.058;2024-03-23T08:13:34;9.20;81.70
76613;DHT22;65507;48.454;-2.058;2024-03-23T08:16:01;9.20;81.70
76613;DHT22;65507;48.454;-2.058;2024-03-23T08:18:27;9.30;81.60
76613;DHT22;65507;48.454;-2.058;2024-03-23T08:23:29;9.40;81.50
76613;DHT22;65507;48.454;-2.058;2024-03-23T08:26:00;9.40;81.40
76613;DHT22;65507;48.454;-2.058;2024-03-23T08:28:26;9.40;81.40
76613;DHT22;65507;48.454;-2.058;2024-03-23T08:30:53;9.50;81.40
76613;DHT22;65507;48.454;-2.058;2024-03-23T08:33:19;9.60;81.10
76613;DHT22;65507;48.454;-2.058;2024-03-23T08:36:00;9.70;80.90
76613;DHT22;65507;48.454;-2.058;2024-03-23T08:38:26;9.70;80.80
76613;DHT22;65507;48.454;-2.058;2024-03-23T08:41:05;9.80;80.80
76613;DHT22;65507;48.454;-2.058;2024-03-23T08:43:37;9.90;80.60
76613;DHT22;65507;48.454;-2.058;2024-03-23T08:46:04;10.00;80.30
76613;DHT22;65507;48.454;-2.058;2024-03-23T08:48:30;10.10;80.10
76613;DHT22;65507;48.454;-2.058;2024-03-23T08:51:06;10.20;80.00
76613;DHT22;65507;48.454;-2.058;2024-03-23T08:53:34;10.30;79.70
76613;DHT22;65507;48.454;-2.058;2024-03-23T08:56:00;10.40;79.70
76613;DHT22;65507;48.454;-2.058;2024-03-23T08:58:27;10.50;79.50
76613;DHT22;65507;48.454;-2.058;2024-03-23T09:00:54;10.60;79.30
76613;DHT22;65507;48.454;-2.058;2024-03-23T09:03:24;10.60;79.20
76613;DHT22;65507;48.454;-2.058;2024-03-23T09:05:50;10.70;79.10
76613;DHT22;65507;48.454;-2.058;2024-03-23T09:08:16;10.80;78.80
76613;DHT22;65507;48.454;-2.058;2024-03-23T09:10:42;10.90;78.90
76613;DHT22;65507;48.454;-2.058;2024-03-23T09:13:08;10.90;78.60
76613;DHT22;65507;48.454;-2.058;2024-03-23T09:15:35;10.90;78.70
76613;DHT22;65507;48.454;-2.058;2024-03-23T09:18:01;11.10;78.60
76613;DHT22;65507;48.454;-2.058;2024-03-23T09:20:27;11.10;78.40
76613;DHT22;65507;48.454;-2.058;2024-03-23T09:22:52;11.10;78.60
76613;DHT22;65507;48.454;-2.058;2024-03-23T09:25:18;11.20;78.40
76613;DHT22;65507;48.454;-2.058;2024-03-23T09:27:49;11.30;78.30
76613;DHT22;65507;48.454;-2.058;2024-03-23T09:30:15;11.40;78.00
76613;DHT22;65507;48.454;-2.058;2024-03-23T09:32:43;11.40;77.80
76613;DHT22;65507;48.454;-2.058;2024-03-23T09:35:09;11.40;77.90
76613;DHT22;65507;48.454;-2.058;2024-03-23T09:37:35;11.40;78.00
76613;DHT22;65507;48.454;-2.058;2024-03-23T09:40:01;11.50;77.80
76613;DHT22;65507;48.454;-2.058;2024-03-23T09:42:27;11.50;77.50
76613;DHT22;65507;48.454;-2.058;2024-03-23T09:44:57;11.60;77.40
76613;DHT22;65507;48.454;-2.058;2024-03-23T09:47:24;11.80;77.10
76613;DHT22;65507;48.454;-2.058;2024-03-23T09:49:50;11.90;76.80
76613;DHT22;65507;48.454;-2.058;2024-03-23T09:52:19;11.90;76.80
76613;DHT22;65507;48.454;-2.058;2024-03-23T09:54:45;12.00;77.00
76613;DHT22;65507;48.454;-2.058;2024-03-23T09:57:11;11.80;77.00
76613;DHT22;65507;48.454;-2.058;2024-03-23T09:59:36;11.80;77.00
76613;DHT22;65507;48.454;-2.058;2024-03-23T10:02:02;11.70;77.10
76613;DHT22;65507;48.454;-2.058;2024-03-23T10:04:37;11.70;77.10
76613;DHT22;65507;48.454;-2.058;2024-03-23T10:07:19;11.80;76.90
76613;DHT22;65507;48.454;-2.058;2024-03-23T10:09:46;11.80;76.80
76613;DHT22;65507;48.454;-2.058;2024-03-23T10:12:14;11.90;76.70
76613;DHT22;65507;48.454;-2.058;2024-03-23T10:14:40;12.00;76.30
76613;DHT22;65507;48.454;-2.058;2024-03-23T10:17:21;12.00;76.00
76613;DHT22;65507;48.454;-2.058;2024-03-23T10:19:52;12.00;75.80
76613;DHT22;65507;48.454;-2.058;2024-03-23T10:22:24;12.00;75.80
76613;DHT22;65507;48.454;-2.058;2024-03-23T10:24:50;12.10;75.70
76613;DHT22;65507;48.454;-2.058;2024-03-23T10:27:20;12.00;75.50
76613;DHT22;65507;48.454;-2.058;2024-03-23T10:29:46;12.00;76.60
76613;DHT22;65507;48.454;-2.058;2024-03-23T10:32:14;12.00;75.70
76613;DHT22;65507;48.454;-2.058;2024-03-23T10:34:40;11.80;76.00
76613;DHT22;65507;48.454;-2.058;2024-03-23T10:37:07;11.60;76.30
76613;DHT22;65507;48.454;-2.058;2024-03-23T10:39:33;11.40;76.80
76613;DHT22;65507;48.454;-2.058;2024-03-23T10:42:02;11.30;77.20
76613;DHT22;65507;48.454;-2.058;2024-03-23T10:44:28;11.10;77.60
76613;DHT22;65507;48.454;-2.058;2024-03-23T10:47:00;11.20;77.70
76613;DHT22;65507;48.454;-2.058;2024-03-23T10:49:33;11.30;77.50
76613;DHT22;65507;48.454;-2.058;2024-03-23T10:52:00;11.40;78.00
76613;DHT22;65507;48.454;-2.058;2024-03-23T10:54:27;11.50;76.80
76613;DHT22;65507;48.454;-2.058;2024-03-23T10:57:13;11.70;76.50
76613;DHT22;65507;48.454;-2.058;2024-03-23T10:59:40;11.90;76.00
76613;DHT22;65507;48.454;-2.058;2024-03-23T11:02:06;12.00;75.70
76613;DHT22;65507;48.454;-2.058;2024-03-23T11:04:37;12.10;75.30
76613;DHT22;65507;48.454;-2.058;2024-03-23T11:09:55;12.20;74.70
76613;DHT22;65507;48.454;-2.058;2024-03-23T11:15:04;12.10;75.00
76613;DHT22;65507;48.454;-2.058;2024-03-23T11:17:30;11.80;75.60
76613;DHT22;65507;48.454;-2.058;2024-03-23T11:19:58;11.60;76.20
76613;DHT22;65507;48.454;-2.058;2024-03-23T11:25:24;11.30;77.00
76613;DHT22;65507;48.454;-2.058;2024-03-23T11:27:51;11.30;77.10
76613;DHT22;65507;48.454;-2.058;2024-03-23T11:32:54;11.40;76.70
76613;DHT22;65507;48.454;-2.058;2024-03-23T11:35:29;11.40;76.40
76613;DHT22;65507;48.454;-2.058;2024-03-23T11:38:06;11.40;75.90
76613;DHT22;65507;48.454;-2.058;2024-03-23T11:40:33;11.40;76.00
76613;DHT22;65507;48.454;-2.058;2024-03-23T11:43:07;11.30;76.30
76613;DHT22;65507;48.454;-2.058;2024-03-23T11:45:38;11.10;76.60
76613;DHT22;65507;48.454;-2.058;2024-03-23T11:48:09;11.00;76.90
76613;DHT22;65507;48.454;-2.058;2024-03-23T11:50:39;10.90;77.10
76613;DHT22;65507;48.454;-2.058;2024-03-23T11:53:26;10.90;77.10
76613;DHT22;65507;48.454;-2.058;2024-03-23T11:55:59;10.90;77.00
76613;DHT22;65507;48.454;-2.058;2024-03-23T11:58:27;11.10;76.90
76613;DHT22;65507;48.454;-2.058;2024-03-23T12:00:57;11.20;76.50
76613;DHT22;65507;48.454;-2.058;2024-03-23T12:03:24;11.30;76.10
76613;DHT22;65507;48.454;-2.058;2024-03-23T12:06:01;11.50;75.80
76613;DHT22;65507;48.454;-2.058;2024-03-23T12:08:34;11.80;75.40
76613;DHT22;65507;48.454;-2.058;2024-03-23T12:11:15;11.90;75.20
76613;DHT22;65507;48.454;-2.058;2024-03-23T12:13:45;12.00;74.90
76613;DHT22;65507;48.454;-2.058;2024-03-23T12:16:16;12.10;74.80
76613;DHT22;65507;48.454;-2.058;2024-03-23T12:18:47;12.20;74.70
76613;DHT22;65507;48.454;-2.058;2024-03-23T12:21:13;12.30;74.50
76613;DHT22;65507;48.454;-2.058;2024-03-23T12:23:39;12.50;74.20
76613;DHT22;65507;48.454;-2.058;2024-03-23T12:26:05;12.50;74.00
76613;DHT22;65507;48.454;-2.058;2024-03-23T12:28:32;12.70;73.80
76613;DHT22;65507;48.454;-2.058;2024-03-23T12:30:58;12.80;73.60
76613;DHT22;65507;48.454;-2.058;2024-03-23T12:33:24;12.90;73.40
76613;DHT22;65507;48.454;-2.058;2024-03-23T12:35:52;13.00;73.10
76613;DHT22;65507;48.454;-2.058;2024-03-23T12:38:19;12.90;73.10
76613;DHT22;65507;48.454;-2.058;2024-03-23T12:40:49;12.80;73.40
76613;DHT22;65507;48.454;-2.058;2024-03-23T12:43:15;12.60;73.60
76613;DHT22;65507;48.454;-2.058;2024-03-23T12:45:41;12.10;74.50
76613;DHT22;65507;48.454;-2.058;2024-03-23T12:48:07;11.70;75.50
76613;DHT22;65507;48.454;-2.058;2024-03-23T12:50:32;11.20;76.70
76613;DHT22;65507;48.454;-2.058;2024-03-23T12:52:58;10.90;78.40
76613;DHT22;65507;48.454;-2.058;2024-03-23T12:55:24;10.70;78.00
76613;DHT22;65507;48.454;-2.058;2024-03-23T12:57:50;10.60;78.30
76613;DHT22;65507;48.454;-2.058;2024-03-23T13:00:16;10.60;79.30
76613;DHT22;65507;48.454;-2.058;2024-03-23T13:02:42;10.70;78.00
76613;DHT22;65507;48.454;-2.058;2024-03-23T13:05:08;10.90;77.50
76613;DHT22;65507;48.454;-2.058;2024-03-23T13:07:34;11.10;77.00
76613;DHT22;65507;48.454;-2.058;2024-03-23T13:10:01;11.40;76.60
76613;DHT22;65507;48.454;-2.058;2024-03-23T13:12:27;11.70;76.10
76613;DHT22;65507;48.454;-2.058;2024-03-23T13:14:53;11.80;75.60
76613;DHT22;65507;48.454;-2.058;2024-03-23T13:17:19;12.00;75.30
76613;DHT22;65507;48.454;-2.058;2024-03-23T13:19:44;12.10;75.20
76613;DHT22;65507;48.454;-2.058;2024-03-23T13:22:10;12.10;74.90
76613;DHT22;65507;48.454;-2.058;2024-03-23T13:24:37;12.20;74.90
76613;DHT22;65507;48.454;-2.058;2024-03-23T13:27:03;12.30;74.80
76613;DHT22;65507;48.454;-2.058;2024-03-23T13:29:30;12.40;74.40
76613;DHT22;65507;48.454;-2.058;2024-03-23T13:31:56;12.50;74.30
76613;DHT22;65507;48.454;-2.058;2024-03-23T13:34:22;12.70;74.10
76613;DHT22;65507;48.454;-2.058;2024-03-23T13:36:47;12.70;74.00
76613;DHT22;65507;48.454;-2.058;2024-03-23T13:39:14;12.70;74.10
76613;DHT22;65507;48.454;-2.058;2024-03-23T13:41:45;12.50;74.50
76613;DHT22;65507;48.454;-2.058;2024-03-23T13:44:12;12.20;74.90
76613;DHT22;65507;48.454;-2.058;2024-03-23T13:46:42;12.00;75.30
76613;DHT22;65507;48.454;-2.058;2024-03-23T13:51:52;11.70;76.00
76613;DHT22;65507;48.454;-2.058;2024-03-23T13:54:18;11.70;76.30
76613;DHT22;65507;48.454;-2.058;2024-03-23T13:56:43;11.60;76.20
76613;DHT22;65507;48.454;-2.058;2024-03-23T13:59:10;11.70;76.30
76613;DHT22;65507;48.454;-2.058;2024-03-23T14:01:35;11.80;76.10
76613;DHT22;65507;48.454;-2.058;2024-03-23T14:04:01;11.90;75.80
76613;DHT22;65507;48.454;-2.058;2024-03-23T14:06:27;12.00;75.60
76613;DHT22;65507;48.454;-2.058;2024-03-23T14:08:52;11.90;75.80
76613;DHT22;65507;48.454;-2.058;2024-03-23T14:11:19;11.60;76.00
76613;DHT22;65507;48.454;-2.058;2024-03-23T14:13:44;11.10;76.80
76613;DHT22;65507;48.454;-2.058;2024-03-23T14:16:10;10.70;77.70
76613;DHT22;65507;48.454;-2.058;2024-03-23T14:18:36;10.40;78.40
76613;DHT22;65507;48.454;-2.058;2024-03-23T14:21:02;10.20;78.90
76613;DHT22;65507;48.454;-2.058;2024-03-23T14:23:30;10.10;79.20
76613;DHT22;65507;48.454;-2.058;2024-03-23T14:25:58;10.10;79.10
76613;DHT22;65507;48.454;-2.058;2024-03-23T14:28:24;10.20;78.80
76613;DHT22;65507;48.454;-2.058;2024-03-23T14:30:51;10.30;78.60
76613;DHT22;65507;48.454;-2.058;2024-03-23T14:33:18;10.40;78.10
76613;DHT22;65507;48.454;-2.058;2024-03-23T14:35:52;10.50;77.70
76613;DHT22;65507;48.454;-2.058;2024-03-23T14:38:18;10.70;77.20
76613;DHT22;65507;48.454;-2.058;2024-03-23T14:40:48;10.80;76.90
76613;DHT22;65507;48.454;-2.058;2024-03-23T14:43:14;10.90;76.60
76613;DHT22;65507;48.454;-2.058;2024-03-23T14:46:09;11.00;76.40
76613;DHT22;65507;48.454;-2.058;2024-03-23T14:48:35;11.20;76.10
76613;DHT22;65507;48.454;-2.058;2024-03-23T14:51:02;11.30;75.80
76613;DHT22;65507;48.454;-2.058;2024-03-23T14:53:32;11.40;75.60
76613;DHT22;65507;48.454;-2.058;2024-03-23T14:55:58;11.60;75.40
76613;DHT22;65507;48.454;-2.058;2024-03-23T14:58:25;11.70;75.40
76613;DHT22;65507;48.454;-2.058;2024-03-23T15:00:51;11.70;75.20
76613;DHT22;65507;48.454;-2.058;2024-03-23T15:03:17;11.70;75.30
76613;DHT22;65507;48.454;-2.058;2024-03-23T15:05:55;11.70;75.40
76613;DHT22;65507;48.454;-2.058;2024-03-23T15:08:21;11.70;75.50
76613;DHT22;65507;48.454;-2.058;2024-03-23T15:10:47;11.60;75.60
76613;DHT22;65507;48.454;-2.058;2024-03-23T15:13:13;11.50;75.90
76613;DHT22;65507;48.454;-2.058;2024-03-23T15:15:40;11.40;76.20
76613;DHT22;65507;48.454;-2.058;2024-03-23T15:18:12;11.20;76.70
76613;DHT22;65507;48.454;-2.058;2024-03-23T15:20:42;11.10;77.10
76613;DHT22;65507;48.454;-2.058;2024-03-23T15:23:16;11.00;77.30
76613;DHT22;65507;48.454;-2.058;2024-03-23T15:25:42;11.00;77.50
76613;DHT22;65507;48.454;-2.058;2024-03-23T15:28:08;11.00;77.40
76613;DHT22;65507;48.454;-2.058;2024-03-23T15:30:33;11.10;77.40
76613;DHT22;65507;48.454;-2.058;2024-03-23T15:32:59;11.10;77.20
76613;DHT22;65507;48.454;-2.058;2024-03-23T15:35:25;11.20;77.10
76613;DHT22;65507;48.454;-2.058;2024-03-23T15:37:50;11.30;76.80
76613;DHT22;65507;48.454;-2.058;2024-03-23T15:40:16;11.40;76.70
76613;DHT22;65507;48.454;-2.058;2024-03-23T15:42:42;11.40;76.60
76613;DHT22;65507;48.454;-2.058;2024-03-23T15:45:08;11.30;76.50
76613;DHT22;65507;48.454;-2.058;2024-03-23T15:47:35;11.40;76.60
76613;DHT22;65507;48.454;-2.058;2024-03-23T15:50:01;11.50;76.50
76613;DHT22;65507;48.454;-2.058;2024-03-23T15:52:28;11.50;76.40
76613;DHT22;65507;48.454;-2.058;2024-03-23T15:54:54;11.40;76.50
76613;DHT22;65507;48.454;-2.058;2024-03-23T15:57:21;11.30;76.70
76613;DHT22;65507;48.454;-2.058;2024-03-23T15:59:47;11.20;76.70
76613;DHT22;65507;48.454;-2.058;2024-03-23T16:02:13;11.10;76.90
76613;DHT22;65507;48.454;-2.058;2024-03-23T16:04:38;11.10;76.90
76613;DHT22;65507;48.454;-2.058;2024-03-23T16:07:04;11.10;77.00
76613;DHT22;65507;48.454;-2.058;2024-03-23T16:09:30;11.00;77.00
76613;DHT22;65507;48.454;-2.058;2024-03-23T16:11:55;11.00;77.10
76613;DHT22;65507;48.454;-2.058;2024-03-23T16:14:24;11.00;77.10
76613;DHT22;65507;48.454;-2.058;2024-03-23T16:16:49;11.00;77.20
76613;DHT22;65507;48.454;-2.058;2024-03-23T16:19:15;11.00;77.20
76613;DHT22;65507;48.454;-2.058;2024-03-23T16:21:42;11.00;77.10
76613;DHT22;65507;48.454;-2.058;2024-03-23T16:24:07;11.10;76.90
76613;DHT22;65507;48.454;-2.058;2024-03-23T16:26:36;11.20;76.80
76613;DHT22;65507;48.454;-2.058;2024-03-23T16:29:02;11.20;76.70
76613;DHT22;65507;48.454;-2.058;2024-03-23T16:31:28;11.20;76.70